createdAt,value
2018-09-21T00:00:57.438Z,95397.75
2018-09-21T00:03:25.855Z,95399.56
2018-09-21T00:05:54.297Z,95393.17
2018-09-21T00:08:22.762Z,95389.98
2018-09-21T00:10:51.204Z,95390.33
2018-09-21T00:13:19.605Z,95385.93
2018-09-21T00:15:48.043Z,95377.73
2018-09-21T00:18:16.459Z,95376.52
2018-09-21T00:20:44.906Z,95375.24
2018-09-21T00:23:13.289Z,95370.02
2018-09-21T00:25:41.902Z,95366.45
2018-09-21T00:28:10.302Z,95367.63
2018-09-21T00:30:38.690Z,95365.03
2018-09-21T00:33:07.139Z,95366.80
2018-09-21T00:35:35.546Z,95363.91
2018-09-21T00:38:03.979Z,95365.33
2018-09-21T00:40:32.386Z,95359.46
2018-09-21T00:43:00.883Z,95362.48
2018-09-21T00:45:29.286Z,95354.48
2018-09-21T00:47:57.733Z,95354.38
2018-09-21T00:50:26.152Z,95354.56
2018-09-21T00:52:54.589Z,95352.41
2018-09-21T00:55:23.001Z,95350.16
2018-09-21T00:57:51.425Z,95342.30
2018-09-21T01:00:19.931Z,95353.80
2018-09-21T01:02:48.405Z,95355.27
2018-09-21T01:05:16.834Z,95345.16
2018-09-21T01:07:45.301Z,95343.31
2018-09-21T01:10:13.748Z,95347.52
2018-09-21T01:12:42.239Z,95343.52
2018-09-21T01:15:10.707Z,95350.30
2018-09-21T01:17:39.187Z,95342.52
2018-09-21T01:20:07.634Z,95340.53
2018-09-21T01:22:36.088Z,95337.66
2018-09-21T01:25:04.599Z,95329.20
2018-09-21T01:27:33.048Z,95330.06
2018-09-21T01:30:02.150Z,95325.06
2018-09-21T01:32:30.583Z,95327.25
2018-09-21T01:34:59.056Z,95325.62
2018-09-21T01:37:27.542Z,95321.20
2018-09-21T01:39:56.019Z,95324.39
2018-09-21T01:42:24.456Z,95322.47
2018-09-21T01:44:52.936Z,95315.14
2018-09-21T01:47:21.395Z,95316.87
2018-09-21T01:49:49.874Z,95317.88
2018-09-21T01:52:18.374Z,95314.98
2018-09-21T01:54:46.858Z,95318.79
2018-09-21T01:57:15.316Z,95311.75
2018-09-21T01:59:43.757Z,95309.34
2018-09-21T02:02:12.186Z,95306.59
2018-09-21T02:04:41.370Z,95308.06
2018-09-21T02:07:11.575Z,95311.66
2018-09-21T02:09:40.676Z,95309.25
2018-09-21T02:12:09.091Z,95308.91
2018-09-21T02:14:37.554Z,95305.66
2018-09-21T02:17:06.459Z,95304.89
2018-09-21T02:19:34.945Z,95303.77
2018-09-21T02:22:03.479Z,95304.95
2018-09-21T02:24:31.958Z,95303.34
2018-09-21T02:27:00.447Z,95300.92
2018-09-21T02:29:28.890Z,95304.23
2018-09-21T02:31:57.359Z,95304.41
2018-09-21T02:34:25.786Z,95298.83
2018-09-21T02:36:54.247Z,95299.76
2018-09-21T02:39:22.661Z,95297.95
2018-09-21T02:41:51.119Z,95299.63
2018-09-21T02:44:19.577Z,95297.05
2018-09-21T02:46:48.035Z,95301.13
2018-09-21T02:49:16.472Z,95297.47
2018-09-21T02:51:44.934Z,95297.19
2018-09-21T02:54:13.386Z,95295.38
2018-09-21T02:56:42.810Z,95299.39
2018-09-21T02:59:11.289Z,95304.02
2018-09-21T03:01:39.763Z,95300.34
2018-09-21T03:04:08.210Z,95295.16
2018-09-21T03:06:36.692Z,95292.31
2018-09-21T03:09:08.724Z,95299.34
2018-09-21T03:11:37.505Z,95301.64
2018-09-21T03:14:05.992Z,95302.09
2018-09-21T03:16:34.610Z,95305.21
2018-09-21T03:19:03.815Z,95303.86
2018-09-21T03:21:32.403Z,95300.77
2018-09-21T03:24:00.886Z,95294.72
2018-09-21T03:26:29.374Z,95293.41
2018-09-21T03:28:57.859Z,95295.89
2018-09-21T03:31:26.294Z,95285.98
2018-09-21T03:33:54.753Z,95292.84
2018-09-21T03:36:23.188Z,95286.86
2018-09-21T03:38:51.642Z,95291.34
2018-09-21T03:41:20.102Z,95288.33
2018-09-21T03:43:48.600Z,95288.03
2018-09-21T03:46:17.112Z,95282.58
2018-09-21T03:48:45.632Z,95290.39
2018-09-21T03:51:14.090Z,95283.81
2018-09-21T03:53:42.554Z,95281.78
2018-09-21T03:56:10.994Z,95282.80
2018-09-21T03:58:39.462Z,95281.26
2018-09-21T04:01:08.200Z,95276.07
2018-09-21T04:03:39.208Z,95275.95
2018-09-21T04:06:07.662Z,95264.48
2018-09-21T04:08:36.107Z,95271.98
2018-09-21T04:11:04.617Z,95268.05
2018-09-21T04:13:33.036Z,95265.88
2018-09-21T04:16:02.041Z,95265.78
2018-09-21T04:18:30.530Z,95266.14
2018-09-21T04:20:59.004Z,95269.02
2018-09-21T04:23:27.450Z,95267.08
2018-09-21T04:25:55.968Z,95264.68
2018-09-21T04:28:24.394Z,95264.70
2018-09-21T04:30:52.872Z,95261.27
2018-09-21T04:33:21.319Z,95266.92
2018-09-21T04:35:49.774Z,95257.36
2018-09-21T04:38:18.188Z,95257.64
2018-09-21T04:40:46.618Z,95253.36
2018-09-21T04:43:15.079Z,95252.84
2018-09-21T04:45:43.574Z,95249.20
2018-09-21T04:48:11.982Z,95248.05
2018-09-21T04:50:40.413Z,95237.13
2018-09-21T04:53:08.875Z,95245.81
2018-09-21T04:55:37.310Z,95240.09
2018-09-21T04:58:05.820Z,95240.98
2018-09-21T05:00:34.251Z,95247.77
2018-09-21T05:03:02.927Z,95251.67
2018-09-21T05:05:31.349Z,95250.09
2018-09-21T05:07:59.794Z,95250.37
2018-09-21T05:10:28.222Z,95250.70
2018-09-21T05:12:56.675Z,95247.89
2018-09-21T05:15:25.108Z,95248.02
2018-09-21T05:17:53.526Z,95255.41
2018-09-21T05:20:22.131Z,95260.13
2018-09-21T05:22:50.617Z,95260.66
2018-09-21T05:25:19.138Z,95259.06
2018-09-21T05:27:47.614Z,95263.70
2018-09-21T05:30:16.641Z,95263.72
2018-09-21T05:32:45.074Z,95262.27
2018-09-21T05:35:13.670Z,95254.43
2018-09-21T05:37:42.062Z,95271.66
2018-09-21T05:40:14.651Z,95270.03
2018-09-21T05:42:43.072Z,95268.23
2018-09-21T05:45:11.637Z,95271.50
2018-09-21T05:47:40.249Z,95265.59
2018-09-21T05:50:08.782Z,95266.54
2018-09-21T05:52:37.184Z,95269.81
2018-09-21T05:55:05.891Z,95273.74
2018-09-21T05:57:34.327Z,95271.44
2018-09-21T06:00:02.775Z,95273.08
2018-09-21T06:02:31.263Z,95261.84
2018-09-21T06:05:04.529Z,95267.90
2018-09-21T06:07:33.303Z,95261.45
2018-09-21T06:10:01.965Z,95262.59
2018-09-21T06:12:30.410Z,95263.05
2018-09-21T06:14:58.822Z,95263.52
2018-09-21T06:17:27.270Z,95263.00
2018-09-21T06:19:55.715Z,95259.52
2018-09-21T06:22:24.438Z,95265.23
2018-09-21T06:24:52.855Z,95260.42
2018-09-21T06:27:21.596Z,95262.84
2018-09-21T06:29:50.015Z,95262.65
2018-09-21T06:32:18.459Z,95261.30
2018-09-21T06:34:46.924Z,95267.47
2018-09-21T06:37:15.406Z,95262.75
2018-09-21T06:39:43.833Z,95266.13
2018-09-21T06:42:12.298Z,95254.98
2018-09-21T06:44:40.936Z,95252.55
2018-09-21T06:47:09.385Z,95257.03
2018-09-21T06:49:37.775Z,95256.80
2018-09-21T06:52:06.412Z,95246.30
2018-09-21T06:54:34.861Z,95258.70
2018-09-21T06:57:03.643Z,95251.43
2018-09-21T06:59:32.113Z,95257.58
2018-09-21T07:02:00.570Z,95255.30
2018-09-21T07:04:29.026Z,95249.55
2018-09-21T07:06:57.438Z,95249.29
2018-09-21T07:09:28.900Z,95255.07
2018-09-21T07:11:57.327Z,95247.81
2018-09-21T07:14:25.745Z,95251.15
2018-09-21T07:16:54.134Z,95257.61
2018-09-21T07:19:22.654Z,95257.44
2018-09-21T07:21:51.077Z,95254.33
2018-09-21T07:24:19.554Z,95256.66
2018-09-21T07:26:47.950Z,95256.11
2018-09-21T07:29:16.408Z,95251.82
2018-09-21T07:31:44.811Z,95246.83
2018-09-21T07:34:13.234Z,95250.77
2018-09-21T07:36:41.626Z,95255.73
2018-09-21T07:39:10.082Z,95254.56
2018-09-21T07:41:38.482Z,95257.81
2018-09-21T07:44:06.930Z,95259.03
2018-09-21T07:46:35.355Z,95253.88
2018-09-21T07:49:03.793Z,95251.50
2018-09-21T07:51:32.240Z,95253.16
2018-09-21T07:54:00.637Z,95247.17
2018-09-21T07:56:29.078Z,95252.66
2018-09-21T07:58:57.533Z,95242.63
2018-09-21T08:01:25.961Z,95250.97
2018-09-21T08:03:54.353Z,95250.88
2018-09-21T08:06:22.774Z,95258.61
2018-09-21T08:08:51.178Z,95267.00
2018-09-21T08:11:19.611Z,95256.62
2018-09-21T08:13:48.002Z,95262.31
2018-09-21T08:16:16.426Z,95261.62
2018-09-21T08:18:44.862Z,95254.79
2018-09-21T08:21:13.321Z,95254.17
2018-09-21T08:23:41.758Z,95251.89
2018-09-21T08:26:10.183Z,95254.84
2018-09-21T08:28:38.573Z,95263.50
2018-09-21T08:31:07.001Z,95257.98
2018-09-21T08:33:35.396Z,95251.35
2018-09-21T08:36:03.837Z,95254.81
2018-09-21T08:38:32.290Z,95257.53
2018-09-21T08:41:00.713Z,95251.42
2018-09-21T08:43:29.150Z,95249.53
2018-09-21T08:45:57.608Z,95247.30
2018-09-21T08:48:26.038Z,95247.23
2018-09-21T08:50:54.459Z,95241.28
2018-09-21T08:53:22.908Z,95240.04
2018-09-21T08:55:51.306Z,95241.64
2018-09-21T08:58:19.726Z,95239.63
2018-09-21T09:00:48.204Z,95241.92
2018-09-21T09:03:16.744Z,95233.89
2018-09-21T09:05:49.207Z,95230.09
2018-09-21T09:08:17.654Z,95235.55
2018-09-21T09:10:46.098Z,95230.77
2018-09-21T09:13:14.561Z,95231.27
2018-09-21T09:15:42.971Z,95224.58
2018-09-21T09:18:11.450Z,95216.91
2018-09-21T09:20:39.876Z,95224.47
2018-09-21T09:23:08.721Z,95218.38
2018-09-21T09:25:37.151Z,95219.14
2018-09-21T09:28:05.690Z,95224.30
2018-09-21T09:30:34.294Z,95223.05
2018-09-21T09:33:03.229Z,95225.66
2018-09-21T09:35:31.753Z,95218.30
2018-09-21T09:38:00.193Z,95218.69
2018-09-21T09:40:28.641Z,95216.71
2018-09-21T09:42:57.123Z,95220.20
2018-09-21T09:45:25.730Z,95209.72
2018-09-21T09:47:54.134Z,95210.50
2018-09-21T09:50:22.582Z,95200.77
2018-09-21T09:52:50.985Z,95201.36
2018-09-21T09:55:19.444Z,95209.27
2018-09-21T09:57:47.854Z,95208.25
2018-09-21T10:00:20.434Z,95204.13
2018-09-21T10:02:48.818Z,95202.41
2018-09-21T10:05:17.271Z,95200.41
2018-09-21T10:07:45.659Z,95199.66
2018-09-21T10:10:14.520Z,95193.90
2018-09-21T10:12:42.878Z,95196.90
2018-09-21T10:15:11.294Z,95196.37
2018-09-21T10:17:39.679Z,95195.02
2018-09-21T10:20:08.161Z,95191.13
2018-09-21T10:22:36.634Z,95188.16
2018-09-21T10:25:05.102Z,95188.33
2018-09-21T10:27:33.706Z,95189.29
2018-09-21T10:30:01.905Z,95175.75
2018-09-21T10:32:30.340Z,95175.52
2018-09-21T10:34:58.768Z,95178.53
2018-09-21T10:37:27.235Z,95173.30
2018-09-21T10:39:55.670Z,95163.44
2018-09-21T10:42:24.159Z,95166.20
2018-09-21T10:44:52.554Z,95171.72
2018-09-21T10:47:20.978Z,95161.80
2018-09-21T10:49:49.461Z,95163.95
2018-09-21T10:52:17.889Z,95171.78
2018-09-21T10:54:46.274Z,95159.04
2018-09-21T10:57:14.754Z,95161.53
2018-09-21T10:59:43.214Z,95171.89
2018-09-21T11:02:11.713Z,95160.04
2018-09-21T11:04:40.115Z,95166.56
2018-09-21T11:07:08.574Z,95169.23
2018-09-21T11:09:36.951Z,95158.91
2018-09-21T11:12:05.395Z,95159.86
2018-09-21T11:14:33.794Z,95152.20
2018-09-21T11:17:02.831Z,95149.04
2018-09-21T11:19:31.249Z,95148.15
2018-09-21T11:21:59.699Z,95142.20
2018-09-21T11:24:28.106Z,95140.53
2018-09-21T11:26:56.498Z,95142.51
2018-09-21T11:29:24.922Z,95135.67
2018-09-21T11:31:53.318Z,95137.02
2018-09-21T11:34:22.315Z,95137.96
2018-09-21T11:36:50.706Z,95129.52
2018-09-21T11:39:19.158Z,95122.64
2018-09-21T11:41:47.559Z,95113.30
2018-09-21T11:44:15.989Z,95121.36
2018-09-21T11:46:44.486Z,95113.53
2018-09-21T11:49:12.870Z,95101.77
2018-09-21T11:51:41.350Z,95109.93
2018-09-21T11:54:09.891Z,95106.18
2018-09-21T11:56:38.302Z,95108.48
2018-09-21T11:59:06.750Z,95102.75
2018-09-21T12:01:35.470Z,95083.69
2018-09-21T12:04:03.929Z,95100.61
2018-09-21T12:06:32.359Z,95092.09
2018-09-21T12:09:00.789Z,95090.39
2018-09-21T12:11:29.254Z,95088.84
2018-09-21T12:13:57.723Z,95080.91
2018-09-21T12:16:26.183Z,95085.96
2018-09-21T12:18:54.604Z,95084.90
2018-09-21T12:21:23.123Z,95086.53
2018-09-21T12:23:51.545Z,95090.72
2018-09-21T12:26:20.969Z,95078.98
2018-09-21T12:28:49.522Z,95084.14
2018-09-21T12:31:18.052Z,95072.01
2018-09-21T12:33:46.561Z,95080.38
2018-09-21T12:36:15.097Z,95077.97
2018-09-21T12:38:43.697Z,95091.67
2018-09-21T12:41:12.181Z,95066.54
2018-09-21T12:43:40.602Z,95073.21
2018-09-21T12:46:22.737Z,95086.39
2018-09-21T12:48:52.538Z,95072.83
2018-09-21T12:51:22.724Z,95066.91
2018-09-21T12:53:51.190Z,95060.89
2018-09-21T12:56:19.686Z,95051.28
2018-09-21T12:58:48.636Z,95063.98
2018-09-21T13:01:17.105Z,95072.89
2018-09-21T13:03:45.680Z,95053.87
2018-09-21T13:06:14.129Z,95047.48
2018-09-21T13:08:42.582Z,95046.09
2018-09-21T13:11:11.014Z,95044.86
2018-09-21T13:13:39.433Z,95042.75
2018-09-21T13:16:08.063Z,95030.55
2018-09-21T13:18:36.734Z,95025.94
2018-09-21T13:21:05.247Z,95031.45
2018-09-21T13:23:33.741Z,95022.00
2018-09-21T13:26:02.207Z,95020.84
2018-09-21T13:28:30.666Z,95022.31
2018-09-21T13:30:59.134Z,95014.05
2018-09-21T13:33:27.611Z,95032.14
2018-09-21T13:35:56.034Z,95010.50
2018-09-21T13:38:24.672Z,95024.37
2018-09-21T13:40:53.071Z,95013.78
2018-09-21T13:43:21.518Z,95009.64
2018-09-21T13:45:49.922Z,95010.19
2018-09-21T13:48:18.662Z,95018.64
2018-09-21T13:50:47.091Z,95019.14
2018-09-21T13:53:15.519Z,95004.47
2018-09-21T13:55:43.910Z,95004.88
2018-09-21T13:58:12.335Z,95007.63
2018-09-21T14:00:40.863Z,94982.38
2018-09-21T14:03:09.324Z,94996.16
2018-09-21T14:05:37.768Z,94991.70
2018-09-21T14:08:06.218Z,95002.49
2018-09-21T14:10:34.650Z,95002.58
2018-09-21T14:13:03.458Z,94995.97
2018-09-21T14:15:31.902Z,95001.11
2018-09-21T14:18:00.310Z,94984.83
2018-09-21T14:20:28.753Z,94992.34
2018-09-21T14:22:57.174Z,94991.45
2018-09-21T14:25:25.602Z,94994.49
2018-09-21T14:27:53.997Z,94993.58
2018-09-21T14:30:22.558Z,94976.89
2018-09-21T14:32:50.974Z,94981.02
2018-09-21T14:35:19.512Z,94972.14
2018-09-21T14:37:48.045Z,94962.56
2018-09-21T14:40:20.276Z,94962.68
2018-09-21T14:42:48.730Z,94967.37
2018-09-21T14:45:17.282Z,94969.55
2018-09-21T14:47:45.721Z,94979.42
2018-09-21T14:50:14.142Z,94959.25
2018-09-21T14:52:42.541Z,94952.98
2018-09-21T14:55:11.031Z,94953.63
2018-09-21T14:57:39.441Z,94967.70
2018-09-21T15:00:08.126Z,94956.81
2018-09-21T15:02:36.540Z,94955.64
2018-09-21T15:05:05.745Z,94951.03
2018-09-21T15:07:34.154Z,94945.58
2018-09-21T15:10:03.291Z,94951.27
2018-09-21T15:12:31.762Z,94958.75
2018-09-21T15:15:00.154Z,94968.38
2018-09-21T15:17:28.650Z,94972.39
2018-09-21T15:19:57.073Z,94966.38
2018-09-21T15:22:25.535Z,94973.52
2018-09-21T15:24:53.948Z,94975.02
2018-09-21T15:27:22.386Z,94969.80
2018-09-21T15:29:51.150Z,94981.88
2018-09-21T15:32:19.623Z,94976.65
2018-09-21T15:34:48.097Z,94975.48
2018-09-21T15:37:16.604Z,94979.84
2018-09-21T15:39:45.052Z,94979.42
2018-09-21T15:42:13.890Z,94983.66
2018-09-21T15:44:42.462Z,94977.60
2018-09-21T15:47:10.910Z,94984.48
2018-09-21T15:49:39.318Z,94974.72
2018-09-21T15:52:07.815Z,94976.52
2018-09-21T15:54:36.770Z,94975.35
2018-09-21T15:57:05.230Z,94972.08
2018-09-21T15:59:33.662Z,94968.69
2018-09-21T16:02:02.099Z,94965.95
2018-09-21T16:04:30.521Z,94957.23
2018-09-21T16:06:58.981Z,94968.23
2018-09-21T16:09:27.426Z,94967.44
2018-09-21T16:11:55.836Z,94956.34
2018-09-21T16:14:24.342Z,94961.83
2018-09-21T16:16:52.694Z,94964.87
2018-09-21T16:19:21.269Z,94973.42
2018-09-21T16:21:49.706Z,94971.20
2018-09-21T16:24:18.202Z,94969.08
2018-09-21T16:26:46.570Z,94972.98
2018-09-21T16:29:15.032Z,94978.30
2018-09-21T16:31:43.439Z,94983.03
2018-09-21T16:34:11.859Z,94981.03
2018-09-21T16:36:40.327Z,94986.49
2018-09-21T16:39:11.611Z,94992.59
2018-09-21T16:41:40.046Z,94995.17
2018-09-21T16:44:08.607Z,95002.63
2018-09-21T16:46:37.093Z,95016.37
2018-09-21T16:49:05.624Z,95018.33
2018-09-21T16:51:34.123Z,95035.36
2018-09-21T16:54:02.577Z,95048.53
2018-09-21T16:56:31.014Z,95053.17
2018-09-21T16:58:59.529Z,95061.19
2018-09-21T17:01:27.893Z,95054.55
2018-09-21T17:03:56.367Z,95064.80
2018-09-21T17:06:24.770Z,95066.78
2018-09-21T17:08:53.434Z,95069.26
2018-09-21T17:11:21.972Z,95060.75
2018-09-21T17:13:50.310Z,95057.13
2018-09-21T17:16:18.750Z,95085.87
2018-09-21T17:18:47.144Z,95105.73
2018-09-21T17:21:15.576Z,95088.97
2018-09-21T17:23:43.962Z,95095.55
2018-09-21T17:26:12.399Z,95100.82
2018-09-21T17:28:40.954Z,95128.38
2018-09-21T17:31:12.770Z,95124.95
2018-09-21T17:33:41.194Z,95124.61
2018-09-21T17:36:09.631Z,95139.20
2018-09-21T17:38:38.057Z,95135.13
2018-09-21T17:41:06.525Z,95120.45
2018-09-21T17:43:35.016Z,95127.80
2018-09-21T17:46:03.450Z,95121.58
2018-09-21T17:48:32.114Z,95136.77
2018-09-21T17:51:00.568Z,95147.18
2018-09-21T17:53:28.990Z,95151.15
2018-09-21T17:55:57.438Z,95156.73
2018-09-21T17:58:26.055Z,95164.89
2018-09-21T18:00:54.517Z,95177.66
2018-09-21T18:03:23.613Z,95173.16
2018-09-21T18:05:52.026Z,95183.52
2018-09-21T18:08:20.566Z,95181.39
2018-09-21T18:10:49.042Z,95183.22
2018-09-21T18:13:17.551Z,95193.99
2018-09-21T18:15:45.961Z,95179.92
2018-09-21T18:18:14.993Z,95196.25
2018-09-21T18:20:43.399Z,95199.78
2018-09-21T18:23:11.862Z,95202.52
2018-09-21T18:25:40.361Z,95212.86
2018-09-21T18:28:08.790Z,95219.47
2018-09-21T18:30:38.542Z,95220.34
2018-09-21T18:33:07.006Z,95218.11
2018-09-21T18:35:35.868Z,95236.80
2018-09-21T18:38:04.919Z,95242.50
2018-09-21T18:40:34.288Z,95223.55
2018-09-21T18:43:03.195Z,95222.89
2018-09-21T18:45:31.617Z,95208.73
2018-09-21T18:48:00.061Z,95231.72
2018-09-21T18:50:28.667Z,95236.60
2018-09-21T18:52:57.162Z,95243.53
2018-09-21T18:55:25.592Z,95250.84
2018-09-21T18:57:54.029Z,95245.94
2018-09-21T19:00:22.473Z,95258.48
2018-09-21T19:02:51.215Z,95267.95
2018-09-21T19:05:19.694Z,95297.72
2018-09-21T19:07:48.982Z,95333.66
2018-09-21T19:10:18.821Z,95351.70
2018-09-21T19:12:47.235Z,95369.17
2018-09-21T19:15:16.210Z,95400.03
2018-09-21T19:17:44.645Z,95398.34
2018-09-21T19:20:13.257Z,95418.41
2018-09-21T19:22:41.642Z,95425.05
2018-09-21T19:25:10.082Z,95453.06
2018-09-21T19:27:38.527Z,95475.08
2018-09-21T19:30:06.992Z,95498.91
2018-09-21T19:32:35.628Z,95497.73
2018-09-21T19:35:04.128Z,95492.37
2018-09-21T19:37:32.557Z,95509.69
2018-09-21T19:40:01.407Z,95518.77
2018-09-21T19:42:30.531Z,95527.96
2018-09-21T19:44:59.127Z,95531.44
2018-09-21T19:47:27.534Z,95538.76
2018-09-21T19:49:56.109Z,95536.78
2018-09-21T19:52:24.530Z,95553.13
2018-09-21T19:54:53.165Z,95543.89
2018-09-21T19:57:21.611Z,95557.33
2018-09-21T19:59:50.147Z,95557.94
2018-09-21T20:02:18.645Z,95564.11
2018-09-21T20:04:47.126Z,95568.11
2018-09-21T20:07:15.542Z,95573.00
2018-09-21T20:09:44.006Z,95561.11
2018-09-21T20:12:12.445Z,95572.93
2018-09-21T20:14:41.850Z,95579.08
2018-09-21T20:17:10.295Z,95579.50
2018-09-21T20:19:39.533Z,95576.88
2018-09-21T20:22:09.610Z,95573.81
2018-09-21T20:24:38.044Z,95574.19
2018-09-21T20:27:07.615Z,95585.78
2018-09-21T20:29:36.042Z,95604.76
2018-09-21T20:32:09.845Z,95609.01
2018-09-21T20:34:39.090Z,95624.28
2018-09-21T20:37:07.706Z,95633.89
2018-09-21T20:39:36.157Z,95649.09
2018-09-21T20:42:04.678Z,95650.20
2018-09-21T20:44:33.098Z,95647.64
2018-09-21T20:47:01.562Z,95669.17
2018-09-21T20:49:30.021Z,95666.70
2018-09-21T20:52:00.304Z,95663.48
2018-09-21T20:54:28.802Z,95671.45
2018-09-21T20:56:57.425Z,95691.20
2018-09-21T20:59:26.017Z,95684.92
2018-09-21T21:01:54.373Z,95701.93
2018-09-21T21:04:22.883Z,95703.16
2018-09-21T21:06:51.362Z,95717.48
2018-09-21T21:09:20.210Z,95722.45
2018-09-21T21:11:48.752Z,95736.91
2018-09-21T21:14:17.538Z,95738.43
2018-09-21T21:16:45.985Z,95730.95
2018-09-21T21:19:14.577Z,95731.20
2018-09-21T21:21:43.337Z,95733.14
2018-09-21T21:24:11.829Z,95741.27
2018-09-21T21:26:40.239Z,95736.91
2018-09-21T21:29:08.746Z,95733.66
2018-09-21T21:31:37.215Z,95746.80
2018-09-21T21:34:05.682Z,95753.45
2018-09-21T21:36:34.103Z,95759.92
2018-09-21T21:39:03.135Z,95749.76
2018-09-21T21:41:31.546Z,95768.96
2018-09-21T21:43:59.992Z,95786.66
2018-09-21T21:46:28.447Z,95793.82
2018-09-21T21:48:56.837Z,95799.70
2018-09-21T21:51:25.461Z,95797.18
2018-09-21T21:53:54.038Z,95793.62
2018-09-21T21:56:22.830Z,95809.93
2018-09-21T21:58:52.181Z,95814.56
2018-09-21T22:01:25.979Z,95819.81
2018-09-21T22:03:54.475Z,95833.50
2018-09-21T22:06:22.947Z,95834.94
2018-09-21T22:08:52.283Z,95817.97
2018-09-21T22:11:26.436Z,95849.98
2018-09-21T22:14:00.365Z,95848.09
2018-09-21T22:16:29.090Z,95843.96
2018-09-21T22:18:57.649Z,95846.03
2018-09-21T22:21:26.223Z,95841.06
2018-09-21T22:23:55.098Z,95862.00
2018-09-21T22:26:23.647Z,95864.66
2018-09-21T22:28:52.198Z,95866.63
2018-09-21T22:31:20.781Z,95842.78
2018-09-21T22:33:49.343Z,95872.84
2018-09-21T22:36:17.874Z,95880.82
2018-09-21T22:38:47.338Z,95878.76
2018-09-21T22:41:15.990Z,95897.67
2018-09-21T22:43:44.463Z,95914.19
2018-09-21T22:46:13.067Z,95928.02
2018-09-21T22:48:41.857Z,95921.92
2018-09-21T22:51:10.386Z,95907.50
2018-09-21T22:53:39.170Z,95905.86
2018-09-21T22:56:08.915Z,95919.94
2018-09-21T22:58:38.107Z,95926.68
2018-09-21T23:01:06.717Z,95922.66
2018-09-21T23:03:35.249Z,95923.96
2018-09-21T23:06:04.146Z,95918.27
2018-09-21T23:08:32.991Z,95930.16
2018-09-21T23:11:01.506Z,95936.30
2018-09-21T23:13:31.019Z,95938.62
2018-09-21T23:15:59.497Z,95941.67
2018-09-21T23:18:27.918Z,95937.16
2018-09-21T23:20:56.326Z,95947.56
2018-09-21T23:23:24.949Z,95953.87
2018-09-21T23:25:53.338Z,95967.45
2018-09-21T23:28:21.757Z,95959.84
2018-09-21T23:30:50.169Z,95959.86
2018-09-21T23:33:18.618Z,95950.28
2018-09-21T23:35:47.021Z,95940.84
2018-09-21T23:38:15.437Z,95945.92
2018-09-21T23:40:43.878Z,95956.22
2018-09-21T23:43:12.314Z,95946.71
2018-09-21T23:45:40.705Z,95955.02
2018-09-21T23:48:09.391Z,95958.64
2018-09-21T23:50:37.774Z,95933.49
2018-09-21T23:53:06.169Z,95947.17
2018-09-21T23:55:34.634Z,95936.36
2018-09-21T23:58:03.540Z,95944.19
